Tampa, Kansas
Current Conditions -  °F | °C
As of 3:53 PM on Monday 24 Nov 2014 (Local Time) from KSLN Reporting Station
Clear Clear  
Wind Chill: 42°   Ceiling: Unl
Heat Index: 48°   Visibility: 10mi
Dew Point: 19°   Wind: 17mph
Humidity: 32%   Direction: 310°NW
Pressure: 29.95"   Gusts: NA
Location:  38.55°N, 97.15°W
Report Text: KSLN 242153Z 31015KT 10SM CLR 09/M07 A2995 RMK AO2 PK WND 31027/2105 SLP145 T00891072
Loading
Personal Weather Stations






























Interactive Weather Map New forecast layout! Learn more

10-Day Weather Forecast

Advertisements
Track Severe Weather on mobile